sensor_id;sensor_type;location;lat;lon;timestamp;P1;durP1;ratioP1;P2;durP2;ratioP2
419;SDS011;42600;54.408;13.016;2022-09-09T00:00:47;6.60;;;3.50;;
419;SDS011;42600;54.408;13.016;2022-09-09T00:03:19;6.67;;;3.73;;
419;SDS011;42600;54.408;13.016;2022-09-09T00:05:53;3.87;;;2.43;;
419;SDS011;42600;54.408;13.016;2022-09-09T00:08:31;9.00;;;2.53;;
419;SDS011;42600;54.408;13.016;2022-09-09T00:11:07;8.47;;;3.17;;
419;SDS011;42600;54.408;13.016;2022-09-09T00:13:39;6.73;;;3.60;;
419;SDS011;42600;54.408;13.016;2022-09-09T00:16:14;7.93;;;3.93;;
419;SDS011;42600;54.408;13.016;2022-09-09T00:18:47;17.40;;;5.20;;
419;SDS011;42600;54.408;13.016;2022-09-09T00:21:19;9.27;;;4.40;;
419;SDS011;42600;54.408;13.016;2022-09-09T00:23:53;6.27;;;3.43;;
419;SDS011;42600;54.408;13.016;2022-09-09T00:26:22;8.40;;;3.30;;
419;SDS011;42600;54.408;13.016;2022-09-09T00:29:00;9.17;;;4.17;;
419;SDS011;42600;54.408;13.016;2022-09-09T00:31:31;6.73;;;3.50;;
419;SDS011;42600;54.408;13.016;2022-09-09T00:33:58;12.43;;;4.20;;
419;SDS011;42600;54.408;13.016;2022-09-09T00:36:30;11.07;;;4.77;;
419;SDS011;42600;54.408;13.016;2022-09-09T00:39:02;4.67;;;2.90;;
419;SDS011;42600;54.408;13.016;2022-09-09T00:41:33;15.90;;;5.07;;
419;SDS011;42600;54.408;13.016;2022-09-09T00:44:13;15.10;;;4.13;;
419;SDS011;42600;54.408;13.016;2022-09-09T00:46:56;10.73;;;5.43;;
419;SDS011;42600;54.408;13.016;2022-09-09T00:49:34;11.83;;;4.73;;
419;SDS011;42600;54.408;13.016;2022-09-09T00:52:12;9.57;;;3.67;;
419;SDS011;42600;54.408;13.016;2022-09-09T00:54:54;8.57;;;4.90;;
419;SDS011;42600;54.408;13.016;2022-09-09T00:57:31;16.30;;;5.97;;
419;SDS011;42600;54.408;13.016;2022-09-09T01:00:15;20.77;;;6.03;;
419;SDS011;42600;54.408;13.016;2022-09-09T01:02:47;7.00;;;4.50;;
419;SDS011;42600;54.408;13.016;2022-09-09T01:05:22;10.10;;;4.97;;
419;SDS011;42600;54.408;13.016;2022-09-09T01:07:55;4.90;;;2.70;;
419;SDS011;42600;54.408;13.016;2022-09-09T01:10:30;10.87;;;4.50;;
419;SDS011;42600;54.408;13.016;2022-09-09T01:13:04;29.57;;;5.50;;
419;SDS011;42600;54.408;13.016;2022-09-09T01:15:38;6.87;;;4.10;;
419;SDS011;42600;54.408;13.016;2022-09-09T01:18:08;11.03;;;5.47;;
419;SDS011;42600;54.408;13.016;2022-09-09T01:20:39;5.23;;;2.90;;
419;SDS011;42600;54.408;13.016;2022-09-09T01:23:30;8.00;;;3.93;;
419;SDS011;42600;54.408;13.016;2022-09-09T01:29:01;4.40;;;2.80;;
419;SDS011;42600;54.408;13.016;2022-09-09T01:31:28;8.57;;;3.77;;
419;SDS011;42600;54.408;13.016;2022-09-09T01:33:58;24.53;;;2.90;;
419;SDS011;42600;54.408;13.016;2022-09-09T01:36:26;9.23;;;2.93;;
419;SDS011;42600;54.408;13.016;2022-09-09T01:39:01;18.30;;;3.67;;
419;SDS011;42600;54.408;13.016;2022-09-09T01:41:28;13.13;;;4.40;;
419;SDS011;42600;54.408;13.016;2022-09-09T01:43:56;14.40;;;4.63;;
419;SDS011;42600;54.408;13.016;2022-09-09T01:46:23;14.60;;;4.97;;
419;SDS011;42600;54.408;13.016;2022-09-09T01:48:50;15.97;;;5.27;;
419;SDS011;42600;54.408;13.016;2022-09-09T01:51:18;12.13;;;4.40;;
419;SDS011;42600;54.408;13.016;2022-09-09T01:53:45;10.40;;;3.60;;
419;SDS011;42600;54.408;13.016;2022-09-09T01:56:15;11.73;;;5.40;;
419;SDS011;42600;54.408;13.016;2022-09-09T01:58:59;15.90;;;5.03;;
419;SDS011;42600;54.408;13.016;2022-09-09T02:01:36;21.60;;;5.77;;
419;SDS011;42600;54.408;13.016;2022-09-09T02:04:17;11.87;;;5.27;;
419;SDS011;42600;54.408;13.016;2022-09-09T02:06:50;12.43;;;4.50;;
419;SDS011;42600;54.408;13.016;2022-09-09T02:09:22;21.20;;;4.73;;
419;SDS011;42600;54.408;13.016;2022-09-09T02:11:52;11.17;;;4.50;;
419;SDS011;42600;54.408;13.016;2022-09-09T02:14:28;20.53;;;4.37;;
419;SDS011;42600;54.408;13.016;2022-09-09T02:17:01;13.20;;;4.60;;
419;SDS011;42600;54.408;13.016;2022-09-09T02:19:34;9.40;;;3.80;;
419;SDS011;42600;54.408;13.016;2022-09-09T02:22:05;18.40;;;5.50;;
419;SDS011;42600;54.408;13.016;2022-09-09T02:24:33;11.80;;;5.07;;
419;SDS011;42600;54.408;13.016;2022-09-09T02:27:03;11.00;;;5.33;;
419;SDS011;42600;54.408;13.016;2022-09-09T02:29:35;12.00;;;4.63;;
419;SDS011;42600;54.408;13.016;2022-09-09T02:32:06;11.13;;;5.47;;
419;SDS011;42600;54.408;13.016;2022-09-09T02:34:37;12.20;;;4.43;;
419;SDS011;42600;54.408;13.016;2022-09-09T02:37:09;11.00;;;5.23;;
419;SDS011;42600;54.408;13.016;2022-09-09T02:39:36;15.93;;;5.30;;
419;SDS011;42600;54.408;13.016;2022-09-09T02:42:03;11.17;;;4.73;;
419;SDS011;42600;54.408;13.016;2022-09-09T02:44:34;14.80;;;5.60;;
419;SDS011;42600;54.408;13.016;2022-09-09T02:47:07;15.23;;;5.03;;
419;SDS011;42600;54.408;13.016;2022-09-09T02:49:43;18.00;;;5.17;;
419;SDS011;42600;54.408;13.016;2022-09-09T02:52:22;17.03;;;6.00;;
419;SDS011;42600;54.408;13.016;2022-09-09T02:54:57;20.43;;;6.47;;
419;SDS011;42600;54.408;13.016;2022-09-09T02:57:30;21.50;;;7.20;;
419;SDS011;42600;54.408;13.016;2022-09-09T03:00:00;16.23;;;6.80;;
419;SDS011;42600;54.408;13.016;2022-09-09T03:02:27;17.70;;;7.50;;
419;SDS011;42600;54.408;13.016;2022-09-09T03:04:55;11.73;;;4.47;;
419;SDS011;42600;54.408;13.016;2022-09-09T03:07:22;18.20;;;7.27;;
419;SDS011;42600;54.408;13.016;2022-09-09T03:09:48;10.73;;;5.13;;
419;SDS011;42600;54.408;13.016;2022-09-09T03:12:15;17.00;;;8.03;;
419;SDS011;42600;54.408;13.016;2022-09-09T03:14:42;15.10;;;5.53;;
419;SDS011;42600;54.408;13.016;2022-09-09T03:17:12;9.00;;;3.93;;
419;SDS011;42600;54.408;13.016;2022-09-09T03:19:38;14.73;;;5.70;;
419;SDS011;42600;54.408;13.016;2022-09-09T03:22:06;15.43;;;5.87;;
419;SDS011;42600;54.408;13.016;2022-09-09T03:24:35;11.20;;;4.93;;
419;SDS011;42600;54.408;13.016;2022-09-09T03:27:01;14.37;;;5.20;;
419;SDS011;42600;54.408;13.016;2022-09-09T03:29:28;16.23;;;5.37;;
419;SDS011;42600;54.408;13.016;2022-09-09T03:31:55;13.70;;;6.07;;
419;SDS011;42600;54.408;13.016;2022-09-09T03:34:23;20.57;;;7.33;;
419;SDS011;42600;54.408;13.016;2022-09-09T03:36:49;11.00;;;5.30;;
419;SDS011;42600;54.408;13.016;2022-09-09T03:39:16;12.67;;;6.33;;
419;SDS011;42600;54.408;13.016;2022-09-09T03:41:43;19.80;;;8.60;;
419;SDS011;42600;54.408;13.016;2022-09-09T03:44:11;17.30;;;6.30;;
419;SDS011;42600;54.408;13.016;2022-09-09T03:46:37;15.03;;;6.10;;
419;SDS011;42600;54.408;13.016;2022-09-09T03:49:04;8.37;;;3.83;;
419;SDS011;42600;54.408;13.016;2022-09-09T03:51:32;18.40;;;6.20;;
419;SDS011;42600;54.408;13.016;2022-09-09T03:54:01;11.80;;;4.50;;
419;SDS011;42600;54.408;13.016;2022-09-09T03:56:30;9.37;;;4.57;;
419;SDS011;42600;54.408;13.016;2022-09-09T03:58:57;12.00;;;4.40;;
419;SDS011;42600;54.408;13.016;2022-09-09T04:01:23;21.47;;;5.53;;
419;SDS011;42600;54.408;13.016;2022-09-09T04:03:50;10.23;;;4.20;;
419;SDS011;42600;54.408;13.016;2022-09-09T04:06:17;12.77;;;4.90;;
419;SDS011;42600;54.408;13.016;2022-09-09T04:08:47;12.40;;;4.90;;
419;SDS011;42600;54.408;13.016;2022-09-09T04:11:14;10.20;;;3.97;;
419;SDS011;42600;54.408;13.016;2022-09-09T04:13:41;6.77;;;4.10;;
419;SDS011;42600;54.408;13.016;2022-09-09T04:16:09;8.83;;;4.40;;
419;SDS011;42600;54.408;13.016;2022-09-09T04:18:38;12.03;;;4.63;;
419;SDS011;42600;54.408;13.016;2022-09-09T04:21:04;13.43;;;4.87;;
419;SDS011;42600;54.408;13.016;2022-09-09T04:23:32;11.27;;;4.53;;
419;SDS011;42600;54.408;13.016;2022-09-09T04:26:01;8.70;;;4.10;;
419;SDS011;42600;54.408;13.016;2022-09-09T04:28:29;13.40;;;6.80;;
419;SDS011;42600;54.408;13.016;2022-09-09T04:30:56;15.90;;;5.63;;
419;SDS011;42600;54.408;13.016;2022-09-09T04:33:29;11.03;;;4.67;;
419;SDS011;42600;54.408;13.016;2022-09-09T04:35:56;15.90;;;5.10;;
419;SDS011;42600;54.408;13.016;2022-09-09T04:38:22;21.03;;;6.73;;
419;SDS011;42600;54.408;13.016;2022-09-09T04:40:51;19.00;;;6.90;;
419;SDS011;42600;54.408;13.016;2022-09-09T04:43:20;18.73;;;7.50;;
419;SDS011;42600;54.408;13.016;2022-09-09T04:45:48;18.33;;;6.30;;
419;SDS011;42600;54.408;13.016;2022-09-09T04:48:16;12.83;;;4.80;;
419;SDS011;42600;54.408;13.016;2022-09-09T04:50:43;10.50;;;3.47;;
419;SDS011;42600;54.408;13.016;2022-09-09T04:53:11;11.57;;;4.80;;
419;SDS011;42600;54.408;13.016;2022-09-09T04:55:37;17.13;;;6.70;;
419;SDS011;42600;54.408;13.016;2022-09-09T04:58:04;9.37;;;3.63;;
419;SDS011;42600;54.408;13.016;2022-09-09T05:00:33;13.97;;;5.03;;
419;SDS011;42600;54.408;13.016;2022-09-09T05:03:01;13.20;;;5.47;;
419;SDS011;42600;54.408;13.016;2022-09-09T05:05:29;16.80;;;6.23;;
419;SDS011;42600;54.408;13.016;2022-09-09T05:08:00;9.73;;;4.43;;
419;SDS011;42600;54.408;13.016;2022-09-09T05:10:27;11.90;;;4.60;;
419;SDS011;42600;54.408;13.016;2022-09-09T05:12:54;9.20;;;3.40;;
419;SDS011;42600;54.408;13.016;2022-09-09T05:15:21;14.50;;;4.60;;
419;SDS011;42600;54.408;13.016;2022-09-09T05:17:49;7.53;;;3.97;;
419;SDS011;42600;54.408;13.016;2022-09-09T05:20:17;16.90;;;5.67;;
419;SDS011;42600;54.408;13.016;2022-09-09T05:22:44;11.90;;;5.10;;
419;SDS011;42600;54.408;13.016;2022-09-09T05:25:10;7.60;;;3.90;;
419;SDS011;42600;54.408;13.016;2022-09-09T05:27:37;14.50;;;4.20;;
419;SDS011;42600;54.408;13.016;2022-09-09T05:30:04;9.60;;;4.93;;
419;SDS011;42600;54.408;13.016;2022-09-09T05:32:31;9.60;;;3.80;;
419;SDS011;42600;54.408;13.016;2022-09-09T05:35:00;6.10;;;2.97;;
419;SDS011;42600;54.408;13.016;2022-09-09T05:37:27;9.47;;;4.57;;
419;SDS011;42600;54.408;13.016;2022-09-09T05:39:55;6.67;;;2.67;;
419;SDS011;42600;54.408;13.016;2022-09-09T05:42:22;6.60;;;3.33;;
419;SDS011;42600;54.408;13.016;2022-09-09T05:44:49;9.93;;;4.70;;
419;SDS011;42600;54.408;13.016;2022-09-09T05:47:19;10.67;;;3.80;;
419;SDS011;42600;54.408;13.016;2022-09-09T05:49:45;13.43;;;5.63;;
419;SDS011;42600;54.408;13.016;2022-09-09T05:52:13;7.83;;;3.33;;
419;SDS011;42600;54.408;13.016;2022-09-09T05:54:40;17.10;;;5.37;;
419;SDS011;42600;54.408;13.016;2022-09-09T05:57:08;9.77;;;3.50;;
419;SDS011;42600;54.408;13.016;2022-09-09T05:59:34;11.77;;;3.57;;
419;SDS011;42600;54.408;13.016;2022-09-09T06:02:01;15.00;;;5.47;;
419;SDS011;42600;54.408;13.016;2022-09-09T06:04:27;12.93;;;2.90;;
419;SDS011;42600;54.408;13.016;2022-09-09T06:06:55;14.93;;;5.90;;
419;SDS011;42600;54.408;13.016;2022-09-09T06:09:23;7.10;;;2.80;;
419;SDS011;42600;54.408;13.016;2022-09-09T06:11:50;10.87;;;5.00;;
419;SDS011;42600;54.408;13.016;2022-09-09T06:14:16;13.47;;;5.60;;
419;SDS011;42600;54.408;13.016;2022-09-09T06:16:43;5.20;;;2.50;;
419;SDS011;42600;54.408;13.016;2022-09-09T06:19:10;9.47;;;4.60;;
419;SDS011;42600;54.408;13.016;2022-09-09T06:21:38;13.10;;;4.40;;
419;SDS011;42600;54.408;13.016;2022-09-09T06:24:05;9.80;;;3.80;;
419;SDS011;42600;54.408;13.016;2022-09-09T06:26:35;8.70;;;3.70;;
419;SDS011;42600;54.408;13.016;2022-09-09T06:29:05;14.63;;;6.40;;
419;SDS011;42600;54.408;13.016;2022-09-09T06:31:33;11.90;;;4.63;;
419;SDS011;42600;54.408;13.016;2022-09-09T06:34:02;7.70;;;3.67;;
419;SDS011;42600;54.408;13.016;2022-09-09T06:36:31;6.50;;;2.73;;
419;SDS011;42600;54.408;13.016;2022-09-09T06:38:59;3.90;;;2.40;;
419;SDS011;42600;54.408;13.016;2022-09-09T06:41:27;8.60;;;3.60;;
419;SDS011;42600;54.408;13.016;2022-09-09T06:43:56;6.10;;;3.20;;
419;SDS011;42600;54.408;13.016;2022-09-09T06:46:23;7.27;;;3.43;;
419;SDS011;42600;54.408;13.016;2022-09-09T06:48:52;13.20;;;4.40;;
419;SDS011;42600;54.408;13.016;2022-09-09T06:51:21;7.00;;;3.40;;
419;SDS011;42600;54.408;13.016;2022-09-09T06:53:50;5.40;;;2.63;;
419;SDS011;42600;54.408;13.016;2022-09-09T06:56:19;16.90;;;6.70;;
419;SDS011;42600;54.408;13.016;2022-09-09T06:58:48;11.07;;;4.50;;
419;SDS011;42600;54.408;13.016;2022-09-09T07:01:17;9.60;;;5.10;;
419;SDS011;42600;54.408;13.016;2022-09-09T07:03:45;25.60;;;8.20;;
419;SDS011;42600;54.408;13.016;2022-09-09T07:06:13;8.77;;;3.67;;
419;SDS011;42600;54.408;13.016;2022-09-09T07:08:42;17.00;;;5.43;;
419;SDS011;42600;54.408;13.016;2022-09-09T07:11:09;15.67;;;6.60;;
419;SDS011;42600;54.408;13.016;2022-09-09T07:13:36;18.93;;;6.10;;
419;SDS011;42600;54.408;13.016;2022-09-09T07:16:03;19.37;;;7.13;;
419;SDS011;42600;54.408;13.016;2022-09-09T07:18:31;11.70;;;5.30;;
419;SDS011;42600;54.408;13.016;2022-09-09T07:20:58;7.90;;;2.77;;
419;SDS011;42600;54.408;13.016;2022-09-09T07:23:25;9.60;;;4.77;;
419;SDS011;42600;54.408;13.016;2022-09-09T07:25:51;23.47;;;10.10;;
419;SDS011;42600;54.408;13.016;2022-09-09T07:28:18;27.97;;;10.73;;
419;SDS011;42600;54.408;13.016;2022-09-09T07:30:52;17.90;;;8.60;;
419;SDS011;42600;54.408;13.016;2022-09-09T07:33:19;28.43;;;11.10;;
419;SDS011;42600;54.408;13.016;2022-09-09T07:35:47;17.87;;;8.73;;
419;SDS011;42600;54.408;13.016;2022-09-09T07:38:14;22.60;;;7.20;;
419;SDS011;42600;54.408;13.016;2022-09-09T07:40:41;27.83;;;10.20;;
419;SDS011;42600;54.408;13.016;2022-09-09T07:43:08;20.37;;;8.83;;
419;SDS011;42600;54.408;13.016;2022-09-09T07:45:35;30.53;;;11.67;;
419;SDS011;42600;54.408;13.016;2022-09-09T07:48:02;31.30;;;12.27;;
419;SDS011;42600;54.408;13.016;2022-09-09T07:50:29;19.97;;;10.37;;
419;SDS011;42600;54.408;13.016;2022-09-09T07:52:57;30.20;;;13.40;;
419;SDS011;42600;54.408;13.016;2022-09-09T07:55:24;30.13;;;11.20;;
419;SDS011;42600;54.408;13.016;2022-09-09T07:57:51;26.53;;;11.63;;
419;SDS011;42600;54.408;13.016;2022-09-09T08:00:18;22.90;;;9.90;;
419;SDS011;42600;54.408;13.016;2022-09-09T08:02:47;37.63;;;12.10;;
419;SDS011;42600;54.408;13.016;2022-09-09T08:05:13;30.40;;;10.90;;
419;SDS011;42600;54.408;13.016;2022-09-09T08:07:41;21.03;;;8.77;;
419;SDS011;42600;54.408;13.016;2022-09-09T08:10:10;30.73;;;10.47;;
419;SDS011;42600;54.408;13.016;2022-09-09T08:12:39;36.47;;;12.10;;
419;SDS011;42600;54.408;13.016;2022-09-09T08:15:06;23.77;;;10.13;;
419;SDS011;42600;54.408;13.016;2022-09-09T08:17:33;32.50;;;11.47;;
419;SDS011;42600;54.408;13.016;2022-09-09T08:19:59;24.33;;;9.17;;
419;SDS011;42600;54.408;13.016;2022-09-09T08:22:29;28.43;;;9.30;;
419;SDS011;42600;54.408;13.016;2022-09-09T08:24:56;24.23;;;8.03;;
419;SDS011;42600;54.408;13.016;2022-09-09T08:27:24;24.17;;;9.00;;
419;SDS011;42600;54.408;13.016;2022-09-09T08:29:51;27.90;;;9.63;;
419;SDS011;42600;54.408;13.016;2022-09-09T08:32:18;23.17;;;9.07;;
419;SDS011;42600;54.408;13.016;2022-09-09T08:34:44;24.43;;;10.00;;
419;SDS011;42600;54.408;13.016;2022-09-09T08:37:11;24.73;;;10.57;;
419;SDS011;42600;54.408;13.016;2022-09-09T08:39:38;17.37;;;7.20;;
419;SDS011;42600;54.408;13.016;2022-09-09T08:42:08;25.07;;;9.53;;
419;SDS011;42600;54.408;13.016;2022-09-09T08:44:52;21.47;;;8.73;;
419;SDS011;42600;54.408;13.016;2022-09-09T08:47:28;22.27;;;9.17;;
419;SDS011;42600;54.408;13.016;2022-09-09T08:50:05;27.97;;;9.63;;
419;SDS011;42600;54.408;13.016;2022-09-09T08:52:43;21.50;;;9.43;;
419;SDS011;42600;54.408;13.016;2022-09-09T08:55:20;17.40;;;7.43;;
419;SDS011;42600;54.408;13.016;2022-09-09T08:57:52;14.47;;;7.60;;
419;SDS011;42600;54.408;13.016;2022-09-09T09:00:24;22.90;;;9.50;;
419;SDS011;42600;54.408;13.016;2022-09-09T09:03:01;24.23;;;8.53;;
419;SDS011;42600;54.408;13.016;2022-09-09T09:05:36;26.80;;;9.23;;
419;SDS011;42600;54.408;13.016;2022-09-09T09:08:12;26.50;;;10.60;;
419;SDS011;42600;54.408;13.016;2022-09-09T09:10:49;28.70;;;10.47;;
419;SDS011;42600;54.408;13.016;2022-09-09T09:13:20;33.43;;;11.33;;
419;SDS011;42600;54.408;13.016;2022-09-09T09:15:55;21.93;;;9.20;;
419;SDS011;42600;54.408;13.016;2022-09-09T09:18:26;20.23;;;9.73;;
419;SDS011;42600;54.408;13.016;2022-09-09T09:20:55;26.50;;;9.83;;
419;SDS011;42600;54.408;13.016;2022-09-09T09:23:29;19.30;;;8.53;;
419;SDS011;42600;54.408;13.016;2022-09-09T09:26:01;15.80;;;6.37;;
419;SDS011;42600;54.408;13.016;2022-09-09T09:28:29;16.30;;;6.83;;
419;SDS011;42600;54.408;13.016;2022-09-09T09:30:59;23.23;;;9.07;;
419;SDS011;42600;54.408;13.016;2022-09-09T09:33:32;15.77;;;6.57;;
419;SDS011;42600;54.408;13.016;2022-09-09T09:36:01;15.27;;;6.67;;
419;SDS011;42600;54.408;13.016;2022-09-09T09:38:28;21.37;;;9.10;;
419;SDS011;42600;54.408;13.016;2022-09-09T09:40:56;29.77;;;9.77;;
419;SDS011;42600;54.408;13.016;2022-09-09T09:43:24;13.13;;;6.60;;
419;SDS011;42600;54.408;13.016;2022-09-09T09:45:53;20.30;;;9.90;;
419;SDS011;42600;54.408;13.016;2022-09-09T09:48:21;22.43;;;8.20;;
419;SDS011;42600;54.408;13.016;2022-09-09T09:50:48;18.23;;;8.37;;
419;SDS011;42600;54.408;13.016;2022-09-09T09:53:18;20.03;;;8.03;;
419;SDS011;42600;54.408;13.016;2022-09-09T09:55:50;20.20;;;8.20;;
419;SDS011;42600;54.408;13.016;2022-09-09T09:58:20;22.23;;;9.20;;
419;SDS011;42600;54.408;13.016;2022-09-09T10:00:47;24.90;;;10.63;;
419;SDS011;42600;54.408;13.016;2022-09-09T10:03:19;20.07;;;9.47;;
419;SDS011;42600;54.408;13.016;2022-09-09T10:05:50;25.00;;;8.03;;
419;SDS011;42600;54.408;13.016;2022-09-09T10:08:18;21.63;;;9.47;;
419;SDS011;42600;54.408;13.016;2022-09-09T10:10:48;18.90;;;8.00;;
419;SDS011;42600;54.408;13.016;2022-09-09T10:13:33;34.83;;;10.63;;
419;SDS011;42600;54.408;13.016;2022-09-09T10:16:14;22.73;;;7.60;;
419;SDS011;42600;54.408;13.016;2022-09-09T10:18:55;16.57;;;7.00;;
419;SDS011;42600;54.408;13.016;2022-09-09T10:21:30;19.50;;;7.63;;
419;SDS011;42600;54.408;13.016;2022-09-09T10:24:11;18.47;;;8.00;;
419;SDS011;42600;54.408;13.016;2022-09-09T10:27:02;18.63;;;6.90;;
419;SDS011;42600;54.408;13.016;2022-09-09T10:29:43;22.93;;;7.97;;
419;SDS011;42600;54.408;13.016;2022-09-09T10:32:28;18.23;;;7.87;;
419;SDS011;42600;54.408;13.016;2022-09-09T10:35:04;9.30;;;6.10;;
419;SDS011;42600;54.408;13.016;2022-09-09T10:37:41;17.30;;;7.70;;
419;SDS011;42600;54.408;13.016;2022-09-09T10:40:19;18.23;;;7.67;;
419;SDS011;42600;54.408;13.016;2022-09-09T10:42:55;15.27;;;7.90;;
419;SDS011;42600;54.408;13.016;2022-09-09T10:45:28;11.37;;;5.07;;
419;SDS011;42600;54.408;13.016;2022-09-09T10:48:08;18.33;;;7.63;;
419;SDS011;42600;54.408;13.016;2022-09-09T10:50:54;16.13;;;6.10;;
419;SDS011;42600;54.408;13.016;2022-09-09T10:53:33;22.77;;;8.60;;
419;SDS011;42600;54.408;13.016;2022-09-09T10:56:05;19.80;;;7.13;;
419;SDS011;42600;54.408;13.016;2022-09-09T10:58:35;18.10;;;8.07;;
419;SDS011;42600;54.408;13.016;2022-09-09T11:01:10;16.37;;;6.67;;
419;SDS011;42600;54.408;13.016;2022-09-09T11:03:41;17.47;;;8.83;;
419;SDS011;42600;54.408;13.016;2022-09-09T11:06:14;17.10;;;8.00;;
419;SDS011;42600;54.408;13.016;2022-09-09T11:08:44;17.23;;;6.70;;
419;SDS011;42600;54.408;13.016;2022-09-09T11:11:12;19.00;;;7.00;;
419;SDS011;42600;54.408;13.016;2022-09-09T11:13:44;14.17;;;6.73;;
419;SDS011;42600;54.408;13.016;2022-09-09T11:16:21;22.10;;;7.93;;
419;SDS011;42600;54.408;13.016;2022-09-09T11:18:53;19.63;;;6.80;;
419;SDS011;42600;54.408;13.016;2022-09-09T11:21:26;16.60;;;6.47;;
419;SDS011;42600;54.408;13.016;2022-09-09T11:23:57;16.30;;;8.20;;
419;SDS011;42600;54.408;13.016;2022-09-09T11:26:29;21.73;;;8.27;;
419;SDS011;42600;54.408;13.016;2022-09-09T11:29:03;18.47;;;9.57;;
419;SDS011;42600;54.408;13.016;2022-09-09T11:31:44;18.57;;;7.80;;
419;SDS011;42600;54.408;13.016;2022-09-09T11:34:18;16.47;;;7.93;;
419;SDS011;42600;54.408;13.016;2022-09-09T11:36:59;13.47;;;7.53;;
419;SDS011;42600;54.408;13.016;2022-09-09T11:42:44;10.10;;;5.13;;
419;SDS011;42600;54.408;13.016;2022-09-09T11:45:19;16.50;;;6.67;;
419;SDS011;42600;54.408;13.016;2022-09-09T11:47:52;34.63;;;7.60;;
419;SDS011;42600;54.408;13.016;2022-09-09T11:50:30;17.43;;;6.93;;
419;SDS011;42600;54.408;13.016;2022-09-09T11:53:22;20.80;;;8.60;;
419;SDS011;42600;54.408;13.016;2022-09-09T11:56:05;16.30;;;7.30;;
419;SDS011;42600;54.408;13.016;2022-09-09T11:58:44;16.80;;;6.90;;
419;SDS011;42600;54.408;13.016;2022-09-09T12:01:27;12.77;;;6.80;;
419;SDS011;42600;54.408;13.016;2022-09-09T12:04:01;17.20;;;7.90;;
419;SDS011;42600;54.408;13.016;2022-09-09T12:06:41;8.30;;;4.90;;
419;SDS011;42600;54.408;13.016;2022-09-09T12:09:15;12.07;;;5.73;;
419;SDS011;42600;54.408;13.016;2022-09-09T12:11:48;16.37;;;6.80;;
419;SDS011;42600;54.408;13.016;2022-09-09T12:14:22;13.13;;;5.70;;
419;SDS011;42600;54.408;13.016;2022-09-09T12:17:09;9.87;;;5.97;;
419;SDS011;42600;54.408;13.016;2022-09-09T12:19:43;11.70;;;4.87;;
419;SDS011;42600;54.408;13.016;2022-09-09T12:22:12;16.13;;;8.03;;
419;SDS011;42600;54.408;13.016;2022-09-09T12:24:51;16.60;;;5.97;;
419;SDS011;42600;54.408;13.016;2022-09-09T12:27:23;9.20;;;5.13;;
419;SDS011;42600;54.408;13.016;2022-09-09T12:29:55;11.07;;;6.03;;
419;SDS011;42600;54.408;13.016;2022-09-09T12:32:28;6.93;;;4.33;;
419;SDS011;42600;54.408;13.016;2022-09-09T12:34:55;12.13;;;6.43;;
419;SDS011;42600;54.408;13.016;2022-09-09T12:37:27;11.57;;;6.13;;
419;SDS011;42600;54.408;13.016;2022-09-09T12:40:00;8.00;;;5.30;;
419;SDS011;42600;54.408;13.016;2022-09-09T12:42:29;13.93;;;6.17;;
419;SDS011;42600;54.408;13.016;2022-09-09T12:44:58;11.00;;;6.43;;
419;SDS011;42600;54.408;13.016;2022-09-09T12:47:29;14.73;;;5.37;;
419;SDS011;42600;54.408;13.016;2022-09-09T12:50:03;9.43;;;5.00;;
419;SDS011;42600;54.408;13.016;2022-09-09T12:52:30;19.43;;;7.43;;
419;SDS011;42600;54.408;13.016;2022-09-09T12:55:00;10.73;;;5.53;;
419;SDS011;42600;54.408;13.016;2022-09-09T12:57:31;8.47;;;4.60;;
419;SDS011;42600;54.408;13.016;2022-09-09T13:00:05;13.37;;;6.20;;
419;SDS011;42600;54.408;13.016;2022-09-09T13:02:44;12.10;;;5.20;;
419;SDS011;42600;54.408;13.016;2022-09-09T13:05:17;11.87;;;6.60;;
419;SDS011;42600;54.408;13.016;2022-09-09T13:07:46;8.80;;;5.03;;
419;SDS011;42600;54.408;13.016;2022-09-09T13:10:15;14.67;;;5.63;;
419;SDS011;42600;54.408;13.016;2022-09-09T13:12:51;10.57;;;6.00;;
419;SDS011;42600;54.408;13.016;2022-09-09T13:15:19;8.93;;;5.47;;
419;SDS011;42600;54.408;13.016;2022-09-09T13:17:51;14.37;;;5.33;;
419;SDS011;42600;54.408;13.016;2022-09-09T13:20:20;13.97;;;6.00;;
419;SDS011;42600;54.408;13.016;2022-09-09T13:22:47;11.60;;;5.93;;
419;SDS011;42600;54.408;13.016;2022-09-09T13:25:20;11.03;;;5.97;;
419;SDS011;42600;54.408;13.016;2022-09-09T13:27:52;10.23;;;5.73;;
419;SDS011;42600;54.408;13.016;2022-09-09T13:30:21;17.43;;;7.50;;
419;SDS011;42600;54.408;13.016;2022-09-09T13:33:04;8.20;;;5.20;;
419;SDS011;42600;54.408;13.016;2022-09-09T13:35:45;15.47;;;6.23;;
419;SDS011;42600;54.408;13.016;2022-09-09T13:38:14;13.80;;;6.60;;
419;SDS011;42600;54.408;13.016;2022-09-09T13:40:52;9.90;;;5.93;;
419;SDS011;42600;54.408;13.016;2022-09-09T13:43:22;13.33;;;6.73;;
419;SDS011;42600;54.408;13.016;2022-09-09T13:45:54;11.27;;;6.20;;
419;SDS011;42600;54.408;13.016;2022-09-09T13:48:22;12.40;;;6.30;;
419;SDS011;42600;54.408;13.016;2022-09-09T13:50:54;13.70;;;6.07;;
419;SDS011;42600;54.408;13.016;2022-09-09T13:53:25;18.33;;;8.40;;
419;SDS011;42600;54.408;13.016;2022-09-09T13:55:53;12.40;;;5.83;;
419;SDS011;42600;54.408;13.016;2022-09-09T13:58:21;11.17;;;5.97;;
419;SDS011;42600;54.408;13.016;2022-09-09T14:00:50;12.13;;;6.30;;
419;SDS011;42600;54.408;13.016;2022-09-09T14:03:17;17.97;;;6.03;;
419;SDS011;42600;54.408;13.016;2022-09-09T14:05:44;13.93;;;7.03;;
419;SDS011;42600;54.408;13.016;2022-09-09T14:08:15;15.27;;;6.80;;
419;SDS011;42600;54.408;13.016;2022-09-09T14:10:50;17.60;;;6.33;;
419;SDS011;42600;54.408;13.016;2022-09-09T14:13:18;11.30;;;6.50;;
419;SDS011;42600;54.408;13.016;2022-09-09T14:15:46;14.93;;;7.80;;
419;SDS011;42600;54.408;13.016;2022-09-09T14:18:14;12.83;;;6.30;;
419;SDS011;42600;54.408;13.016;2022-09-09T14:20:41;25.50;;;7.60;;
419;SDS011;42600;54.408;13.016;2022-09-09T14:23:09;13.40;;;6.20;;
419;SDS011;42600;54.408;13.016;2022-09-09T14:25:39;12.37;;;6.87;;
419;SDS011;42600;54.408;13.016;2022-09-09T14:28:07;11.47;;;7.03;;
419;SDS011;42600;54.408;13.016;2022-09-09T14:30:38;12.67;;;5.47;;
419;SDS011;42600;54.408;13.016;2022-09-09T14:33:05;17.83;;;6.33;;
419;SDS011;42600;54.408;13.016;2022-09-09T14:35:34;14.73;;;7.43;;
419;SDS011;42600;54.408;13.016;2022-09-09T14:38:01;15.83;;;8.40;;
419;SDS011;42600;54.408;13.016;2022-09-09T14:40:28;15.00;;;6.60;;
419;SDS011;42600;54.408;13.016;2022-09-09T14:42:55;12.77;;;6.70;;
419;SDS011;42600;54.408;13.016;2022-09-09T14:45:22;15.53;;;7.43;;
419;SDS011;42600;54.408;13.016;2022-09-09T14:47:51;14.63;;;5.80;;
419;SDS011;42600;54.408;13.016;2022-09-09T14:50:17;11.03;;;6.40;;
419;SDS011;42600;54.408;13.016;2022-09-09T14:52:44;13.20;;;6.60;;
419;SDS011;42600;54.408;13.016;2022-09-09T14:55:11;16.47;;;6.17;;
419;SDS011;42600;54.408;13.016;2022-09-09T14:57:38;24.97;;;7.57;;
419;SDS011;42600;54.408;13.016;2022-09-09T15:00:05;16.77;;;6.77;;
419;SDS011;42600;54.408;13.016;2022-09-09T15:02:33;16.23;;;6.93;;
419;SDS011;42600;54.408;13.016;2022-09-09T15:05:01;9.57;;;6.10;;
419;SDS011;42600;54.408;13.016;2022-09-09T15:07:29;9.20;;;5.33;;
419;SDS011;42600;54.408;13.016;2022-09-09T15:09:56;20.63;;;7.20;;
419;SDS011;42600;54.408;13.016;2022-09-09T15:12:23;15.63;;;7.23;;
419;SDS011;42600;54.408;13.016;2022-09-09T15:14:50;13.73;;;5.90;;
419;SDS011;42600;54.408;13.016;2022-09-09T15:17:18;12.13;;;6.90;;